Time;durP1;ratioP1;P1;durP2;ratioP2;P2;SDS_P1;SDS_P2;PMS_P1;PMS_P2;Temp;Humidity;BMP_temperature;BMP_pressure;BME280_temperature;BME280_humidity;BME280_pressure;Samples;Min_cycle;Max_cycle;Signal;HPM_P1;HPM_P2
2023/06/27 00:01:26;;;;;;;0.50;0.20;;;;;;;18.11;68.99;100600.50;5054984;28;20508;-54
2023/06/27 00:03:53;;;;;;;0.50;0.20;;;;;;;17.86;70.51;100603.63;5054923;28;20637;-54
2023/06/27 00:06:20;;;;;;;0.50;0.20;;;;;;;17.77;70.92;100607.69;5054903;28;20898;-54
2023/06/27 00:08:50;;;;;;;0.50;0.20;;;;;;;17.84;70.89;100610.91;5054728;28;20494;-54
2023/06/27 00:11:16;;;;;;;0.50;0.20;;;;;;;17.79;71.32;100604.03;5049248;28;20466;-54
2023/06/27 00:13:43;;;;;;;0.50;0.20;;;;;;;17.79;71.43;100604.03;5054635;28;20987;-54
2023/06/27 00:16:13;;;;;;;0.50;0.20;;;;;;;17.80;71.40;100614.69;5054549;28;20494;-54
2023/06/27 00:18:42;;;;;;;0.50;0.20;;;;;;;17.87;71.29;100618.81;5054439;28;20512;-54
2023/06/27 00:21:08;;;;;;;0.50;0.20;;;;;;;17.54;72.09;100620.53;5054718;28;20553;-54
2023/06/27 00:23:35;;;;;;;0.50;0.20;;;;;;;17.58;72.37;100623.00;5054499;28;20548;-54
2023/06/27 00:26:03;;;;;;;0.50;0.20;;;;;;;17.57;72.41;100620.41;5054359;28;21007;-54
2023/06/27 00:28:30;;;;;;;0.50;0.20;;;;;;;17.52;72.47;100617.06;5054669;28;20466;-54
2023/06/27 00:30:56;;;;;;;0.50;0.20;;;;;;;17.52;72.07;100617.06;5054778;28;20470;-54
2023/06/27 00:33:23;;;;;;;0.50;0.20;;;;;;;17.54;72.85;100616.03;5054672;28;20466;-54
2023/06/27 00:35:49;;;;;;;0.50;0.20;;;;;;;17.32;72.96;100631.56;5054129;28;20559;-54
2023/06/27 00:38:16;;;;;;;0.50;0.20;;;;;;;17.11;73.97;100625.44;5054393;28;21014;-54
2023/06/27 00:40:42;;;;;;;0.50;0.20;;;;;;;16.98;74.46;100624.31;5054280;28;20462;-54
2023/06/27 00:43:09;;;;;;;0.50;0.20;;;;;;;17.07;74.17;100632.78;5054530;28;20543;-54
2023/06/27 00:45:35;;;;;;;0.50;0.20;;;;;;;17.04;74.96;100635.63;5054288;28;20478;-54
2023/06/27 00:48:03;;;;;;;0.50;0.20;;;;;;;16.79;75.42;100632.41;5054527;28;20517;-54
2023/06/27 00:50:30;;;;;;;0.50;0.20;;;;;;;16.73;76.16;100635.41;5054530;28;20505;-54
2023/06/27 00:53:02;;;;;;;0.50;0.20;;;;;;;16.80;75.80;100635.00;5050900;28;20474;-54
2023/06/27 00:55:30;;;;;;;0.50;0.20;;;;;;;16.96;75.18;100640.50;5054187;28;20498;-54
2023/06/27 00:57:56;;;;;;;0.50;0.20;;;;;;;16.98;74.94;100635.03;5054330;28;20963;-54
2023/06/27 01:00:23;;;;;;;0.50;0.20;;;;;;;16.76;75.14;100640.63;5053789;28;20466;-54
2023/06/27 01:02:49;;;;;;;0.50;0.20;;;;;;;16.47;76.97;100636.59;5054089;28;20545;-54
2023/06/27 01:05:17;;;;;;;0.50;0.20;;;;;;;16.38;77.37;100637.03;5053909;28;20910;-54
2023/06/27 01:07:50;;;;;;;0.50;0.20;;;;;;;16.42;76.76;100639.50;5053876;28;20475;-52
2023/06/27 01:10:41;;;;;;;0.50;0.20;;;;;;;16.30;77.41;100642.75;5053807;28;20462;-52
2023/06/27 01:13:12;;;;;;;0.50;0.20;;;;;;;16.34;77.12;100633.63;5054011;28;20463;-54
2023/06/27 01:15:39;;;;;;;0.50;0.20;;;;;;;16.32;76.99;100637.34;5053380;28;21042;-53
2023/06/27 01:18:08;;;;;;;0.50;0.20;;;;;;;16.15;77.38;100636.28;5053644;28;20463;-54
2023/06/27 01:20:35;;;;;;;0.50;0.20;;;;;;;15.99;78.70;100632.56;5053400;28;20489;-54
2023/06/27 01:23:24;;;;;;;0.50;0.20;;;;;;;15.82;78.88;100632.47;5053722;28;20474;-54
2023/06/27 01:25:59;;;;;;;0.50;0.20;;;;;;;15.91;78.56;100629.38;5052672;28;20536;-54
2023/06/27 01:28:26;;;;;;;0.50;0.20;;;;;;;15.95;78.31;100629.16;5053500;28;20806;-54
2023/06/27 01:30:52;;;;;;;0.53;0.27;;;;;;;15.95;78.27;100629.16;5053079;28;20463;-54
2023/06/27 01:33:39;;;;;;;0.50;0.20;;;;;;;16.08;77.80;100624.09;5053479;28;20470;-54
2023/06/27 01:36:23;;;;;;;0.50;0.20;;;;;;;15.97;78.20;100623.72;5046048;28;20525;-54
2023/06/27 01:39:17;;;;;;;0.50;0.20;;;;;;;15.84;79.40;100620.72;5052267;28;20545;-54
2023/06/27 01:41:50;;;;;;;0.50;0.20;;;;;;;15.68;79.39;100620.53;5053236;28;20458;-54
2023/06/27 01:44:19;;;;;;;0.50;0.20;;;;;;;15.67;78.99;100613.44;5053109;28;20959;-54
2023/06/27 01:46:47;;;;;;;0.50;0.20;;;;;;;15.72;78.80;100615.91;5052791;28;20490;-54
2023/06/27 01:49:14;;;;;;;0.50;0.20;;;;;;;15.52;79.95;100621.25;5053068;28;20574;-54
2023/06/27 01:51:41;;;;;;;0.50;0.20;;;;;;;15.33;80.54;100614.00;5052641;28;20554;-54
2023/06/27 01:54:08;;;;;;;0.50;0.20;;;;;;;15.33;80.44;100622.03;5053147;28;20838;-54
2023/06/27 01:56:35;;;;;;;0.50;0.20;;;;;;;15.36;80.44;100613.00;5052517;28;20933;-54
2023/06/27 01:59:02;;;;;;;0.50;0.20;;;;;;;15.33;80.92;100618.47;5052696;28;20467;-54
2023/06/27 02:01:28;;;;;;;0.50;0.20;;;;;;;15.62;80.27;100627.97;5048866;28;20471;-51
2023/06/27 02:03:55;;;;;;;0.50;0.20;;;;;;;15.57;79.92;100621.91;5052468;28;20616;-51
2023/06/27 02:06:22;;;;;;;0.50;0.20;;;;;;;15.54;80.09;100616.69;5047442;28;20764;-53
2023/06/27 02:08:48;;;;;;;0.50;0.20;;;;;;;15.45;80.35;100625.13;5052220;28;21046;-54
2023/06/27 02:11:14;;;;;;;0.50;0.20;;;;;;;15.26;81.32;100620.56;5050647;28;20463;-54
2023/06/27 02:13:41;;;;;;;0.50;0.20;;;;;;;15.49;80.52;100619.59;5052131;28;20976;-54
2023/06/27 02:16:08;;;;;;;0.50;0.20;;;;;;;15.27;81.50;100616.94;5052163;28;20498;-54
2023/06/27 02:18:34;;;;;;;0.50;0.20;;;;;;;15.21;81.34;100619.88;5052259;28;20557;-53
2023/06/27 02:21:00;;;;;;;0.50;0.20;;;;;;;15.28;80.98;100610.66;5052346;28;20467;-53
2023/06/27 02:23:27;;;;;;;0.50;0.20;;;;;;;15.16;81.24;100610.28;5052280;28;20968;-54
2023/06/27 02:25:53;;;;;;;0.50;0.20;;;;;;;15.01;81.67;100610.00;5052253;28;20479;-54
2023/06/27 02:28:20;;;;;;;0.87;0.87;;;;;;;14.79;82.67;100617.16;5052408;28;20466;-54
2023/06/27 02:30:47;;;;;;;0.50;0.20;;;;;;;14.91;82.24;100616.66;5050144;28;20467;-54
2023/06/27 02:33:13;;;;;;;0.50;0.20;;;;;;;14.85;82.27;100618.75;5052260;28;20466;-54
2023/06/27 02:35:40;;;;;;;0.50;0.20;;;;;;;14.87;82.42;100619.53;5051612;28;20532;-54
2023/06/27 02:38:07;;;;;;;0.50;0.20;;;;;;;14.85;82.31;100616.94;5052310;28;20513;-54
2023/06/27 02:40:34;;;;;;;0.50;0.20;;;;;;;14.73;83.13;100609.41;5052011;28;20520;-54
2023/06/27 02:43:00;;;;;;;0.50;0.20;;;;;;;14.81;82.78;100618.00;5052112;28;20466;-54
2023/06/27 02:45:26;;;;;;;0.50;0.20;;;;;;;14.68;83.59;100614.94;5052187;28;20479;-54
2023/06/27 02:47:53;;;;;;;0.50;0.20;;;;;;;14.70;84.35;100629.13;5051861;28;20473;-53
2023/06/27 02:50:19;;;;;;;0.50;0.20;;;;;;;14.44;85.21;100630.16;5052035;28;20966;-53
2023/06/27 02:52:46;;;;;;;0.50;0.20;;;;;;;14.85;83.84;100629.44;5052035;28;20499;-54
2023/06/27 02:55:12;;;;;;;0.50;0.20;;;;;;;14.70;85.02;100633.63;5051885;28;20534;-53
2023/06/27 02:57:39;;;;;;;0.50;0.20;;;;;;;14.47;85.11;100637.19;5051724;28;20936;-53
2023/06/27 03:00:06;;;;;;;0.50;0.20;;;;;;;14.56;84.99;100639.50;5051950;28;20524;-54
2023/06/27 03:02:32;;;;;;;0.50;0.20;;;;;;;14.64;84.97;100647.22;5051474;28;20553;-54
2023/06/27 03:04:59;;;;;;;0.40;0.20;;;;;;;14.81;84.49;100642.09;5051878;28;20534;-54
2023/06/27 03:07:26;;;;;;;0.50;0.20;;;;;;;14.65;84.78;100644.47;5051980;28;20804;-54
2023/06/27 03:09:52;;;;;;;0.43;0.20;;;;;;;14.65;84.83;100647.16;5051672;28;20827;-54
2023/06/27 03:12:19;;;;;;;0.50;0.20;;;;;;;14.72;84.71;100648.66;5051804;28;20827;-54
2023/06/27 03:14:45;;;;;;;0.50;0.20;;;;;;;14.64;85.02;100650.75;5051540;28;20470;-54
2023/06/27 03:17:12;;;;;;;0.50;0.20;;;;;;;14.65;85.18;100648.97;5051261;28;20540;-54
2023/06/27 03:19:38;;;;;;;0.50;0.20;;;;;;;14.65;85.68;100654.31;5051445;28;20490;-53
2023/06/27 03:22:10;;;;;;;0.43;0.20;;;;;;;14.79;85.34;100650.16;5052776;28;20561;-54
2023/06/27 03:24:37;;;;;;;0.50;0.20;;;;;;;14.73;85.58;100644.19;5055567;28;20878;-54
2023/06/27 03:27:03;;;;;;;0.50;0.20;;;;;;;14.78;85.63;100647.53;5055308;28;20478;-54
2023/06/27 03:29:30;;;;;;;0.40;0.20;;;;;;;14.64;86.17;100655.25;5055639;28;20463;-54
2023/06/27 03:31:59;;;;;;;0.40;0.20;;;;;;;14.70;86.60;100641.66;5055478;28;20475;-54
2023/06/27 03:34:26;;;;;;;0.50;0.20;;;;;;;14.59;87.28;100652.75;5055504;28;20644;-54
2023/06/27 03:36:52;;;;;;;0.50;0.20;;;;;;;14.62;87.53;100662.47;5055470;28;20541;-54
2023/06/27 03:39:19;;;;;;;0.40;0.20;;;;;;;14.71;87.13;100659.44;5055433;28;20466;-54
2023/06/27 03:41:45;;;;;;;0.40;0.20;;;;;;;14.87;86.75;100657.88;5055136;28;20524;-54
2023/06/27 03:44:12;;;;;;;0.50;0.20;;;;;;;15.14;86.44;100663.91;5052847;28;21022;-54
2023/06/27 03:46:38;;;;;;;0.50;0.20;;;;;;;15.13;85.68;100658.63;5055181;28;20894;-54
2023/06/27 03:49:05;;;;;;;0.50;0.20;;;;;;;15.15;85.89;100662.13;5055400;28;20523;-54
2023/06/27 03:51:33;;;;;;;0.50;0.20;;;;;;;15.21;85.67;100662.72;5055154;28;20486;-54
2023/06/27 03:54:02;;;;;;;0.50;0.20;;;;;;;15.19;86.35;100671.75;5055394;28;20560;-54
2023/06/27 03:56:28;;;;;;;0.40;0.20;;;;;;;15.17;86.16;100674.50;5054752;28;20526;-54
2023/06/27 03:58:55;;;;;;;0.50;0.20;;;;;;;15.02;87.12;100669.78;5054668;28;20569;-54
2023/06/27 04:01:21;;;;;;;0.40;0.20;;;;;;;15.12;87.13;100671.16;5055160;28;20520;-54
2023/06/27 04:03:48;;;;;;;0.50;0.20;;;;;;;15.13;87.48;100664.84;5055088;28;20473;-54
2023/06/27 04:06:15;;;;;;;0.40;0.20;;;;;;;15.04;87.73;100670.59;5054691;28;21061;-54
2023/06/27 04:08:41;;;;;;;0.50;0.20;;;;;;;15.11;88.25;100666.72;5054546;28;20494;-53
2023/06/27 04:11:07;;;;;;;0.40;0.20;;;;;;;15.29;87.86;100671.31;5054510;28;20963;-54
2023/06/27 04:13:34;;;;;;;0.40;0.20;;;;;;;15.51;87.22;100676.66;5054315;28;20473;-54
2023/06/27 04:16:00;;;;;;;0.40;0.20;;;;;;;15.62;86.57;100677.09;5054617;28;20502;-54
2023/06/27 04:18:27;;;;;;;0.40;0.20;;;;;;;15.73;86.39;100686.47;5054746;28;20501;-54
2023/06/27 04:20:53;;;;;;;0.40;0.20;;;;;;;15.94;84.38;100682.84;5054236;28;20520;-51
2023/06/27 04:23:20;;;;;;;0.40;0.20;;;;;;;15.97;84.10;100680.03;5054231;28;21010;-51
2023/06/27 04:26:05;;;;;;;0.40;0.20;;;;;;;16.10;83.65;100669.63;5053867;28;20512;-51
2023/06/27 04:28:31;;;;;;;0.50;0.20;;;;;;;16.14;84.61;100664.03;5054126;28;20469;-51
2023/06/27 04:31:00;;;;;;;0.40;0.20;;;;;;;16.11;85.09;100664.19;5046509;28;20496;-54
2023/06/27 04:33:27;;;;;;;0.40;0.20;;;;;;;16.23;84.71;100666.31;5053893;28;20524;-54
2023/06/27 04:36:00;;;;;;;0.40;0.20;;;;;;;16.32;83.38;100674.91;5053751;28;20502;-54
2023/06/27 04:38:28;;;;;;;0.50;0.20;;;;;;;16.28;83.09;100677.69;5054160;28;20508;-54
2023/06/27 04:40:55;;;;;;;0.43;0.20;;;;;;;16.37;82.70;100683.59;5054424;28;20837;-54
2023/06/27 04:43:22;;;;;;;0.50;0.20;;;;;;;16.43;82.81;100672.56;5054242;28;20493;-54
2023/06/27 04:45:48;;;;;;;0.40;0.20;;;;;;;16.37;83.65;100667.50;5053876;28;20491;-54
2023/06/27 04:48:15;;;;;;;0.50;0.20;;;;;;;16.66;83.53;100668.81;5054018;28;20958;-54
2023/06/27 04:50:41;;;;;;;0.50;0.20;;;;;;;16.77;82.88;100685.31;5053616;28;20467;-54
2023/06/27 04:53:07;;;;;;;0.50;0.20;;;;;;;16.79;83.36;100678.91;5053876;28;20532;-54
2023/06/27 04:55:34;;;;;;;0.40;0.20;;;;;;;16.91;82.85;100679.28;5053919;28;20570;-54
2023/06/27 04:58:00;;;;;;;0.40;0.20;;;;;;;16.97;81.41;100671.78;5054146;28;20470;-54
2023/06/27 05:00:27;;;;;;;0.50;0.20;;;;;;;17.60;78.09;100676.69;5053995;28;20463;-54
2023/06/27 05:02:53;;;;;;;0.50;0.20;;;;;;;17.55;78.13;100676.94;5053771;28;20485;-54
2023/06/27 05:05:20;;;;;;;0.50;0.20;;;;;;;17.51;77.98;100683.41;5053833;28;20842;-54
2023/06/27 05:07:46;;;;;;;0.50;0.20;;;;;;;17.87;76.52;100683.38;5053715;28;20465;-54
2023/06/27 05:10:13;;;;;;;0.50;0.20;;;;;;;17.84;76.24;100683.53;5047738;28;20466;-54
2023/06/27 05:12:39;;;;;;;0.50;0.20;;;;;;;18.16;74.24;100689.91;5053730;28;20860;-54
2023/06/27 05:15:06;;;;;;;0.50;0.20;;;;;;;18.02;73.40;100670.94;5053811;28;20463;-54
2023/06/27 05:17:33;;;;;;;0.50;0.20;;;;;;;18.05;73.23;100668.94;5053043;28;20490;-54
2023/06/27 05:19:59;;;;;;;0.50;0.20;;;;;;;18.55;71.09;100678.78;5053405;28;20470;-54
2023/06/27 05:22:26;;;;;;;0.50;0.20;;;;;;;18.20;71.79;100686.06;5053737;28;20528;-54
2023/06/27 05:24:52;;;;;;;0.50;0.20;;;;;;;18.15;72.26;100684.59;5053608;28;20462;-54
2023/06/27 05:27:19;;;;;;;0.50;0.20;;;;;;;18.16;73.03;100683.66;5053274;28;20479;-54
2023/06/27 05:29:45;;;;;;;0.50;0.20;;;;;;;18.25;72.12;100689.41;5052164;28;20459;-54
2023/06/27 05:32:12;;;;;;;0.50;0.20;;;;;;;18.83;70.54;100691.59;5053413;28;20841;-54
2023/06/27 05:34:38;;;;;;;0.50;0.20;;;;;;;18.79;69.63;100687.34;5053095;28;20473;-54
2023/06/27 05:37:05;;;;;;;0.50;0.20;;;;;;;18.76;70.12;100697.41;5052911;28;20499;-54
2023/06/27 05:39:32;;;;;;;0.50;0.20;;;;;;;19.08;69.16;100692.91;5053224;28;20467;-54
2023/06/27 05:41:59;;;;;;;0.50;0.20;;;;;;;19.09;68.44;100692.81;5053011;28;20578;-54
2023/06/27 05:44:25;;;;;;;0.50;0.20;;;;;;;19.19;68.52;100685.97;5052747;28;21008;-54
2023/06/27 05:46:52;;;;;;;0.50;0.20;;;;;;;19.14;68.70;100682.63;5051981;28;20904;-54
2023/06/27 05:49:18;;;;;;;0.50;0.20;;;;;;;19.52;67.81;100687.63;5052709;28;20473;-54
2023/06/27 05:51:46;;;;;;;0.50;0.20;;;;;;;19.65;67.50;100685.97;5053009;28;20493;-54
2023/06/27 05:54:13;;;;;;;0.50;0.20;;;;;;;19.47;68.52;100687.03;5053000;28;20501;-54
2023/06/27 05:56:39;;;;;;;0.50;0.20;;;;;;;19.39;69.03;100692.00;5052324;28;20506;-54
2023/06/27 05:59:06;;;;;;;0.50;0.20;;;;;;;19.17;68.45;100692.38;5053147;28;20481;-54
2023/06/27 06:01:34;;;;;;;0.50;0.20;;;;;;;19.82;66.51;100687.66;5052453;28;20879;-54
2023/06/27 06:04:01;;;;;;;0.47;0.20;;;;;;;19.48;67.53;100684.25;5052778;28;20477;-54
2023/06/27 06:06:28;;;;;;;0.50;0.20;;;;;;;19.31;67.88;100684.34;5052500;28;20987;-54
2023/06/27 06:08:54;;;;;;;0.50;0.20;;;;;;;19.31;68.95;100681.66;5052490;28;20467;-54
2023/06/27 06:11:21;;;;;;;0.50;0.20;;;;;;;19.23;68.71;100690.19;5052555;28;20492;-54
2023/06/27 06:13:47;;;;;;;0.50;0.20;;;;;;;19.31;68.36;100688.88;5052377;28;20466;-54
2023/06/27 06:16:14;;;;;;;0.50;0.20;;;;;;;19.31;68.68;100696.97;5052044;28;20529;-54
2023/06/27 06:18:40;;;;;;;0.50;0.20;;;;;;;19.15;69.19;100702.38;5052532;28;20538;-54
2023/06/27 06:21:07;;;;;;;0.50;0.20;;;;;;;19.37;68.52;100702.88;5052465;28;20462;-54
2023/06/27 06:23:34;;;;;;;0.47;0.20;;;;;;;19.20;67.92;100695.78;5052387;28;20900;-54
2023/06/27 06:26:00;;;;;;;0.50;0.20;;;;;;;19.37;68.03;100696.63;5052131;28;20479;-54
2023/06/27 06:28:26;;;;;;;0.50;0.20;;;;;;;19.58;67.81;100703.47;5052405;28;20470;-54
2023/06/27 06:30:53;;;;;;;0.50;0.20;;;;;;;19.74;67.05;100701.63;5052494;28;20516;-54
2023/06/27 06:33:22;;;;;;;0.50;0.20;;;;;;;19.92;66.17;100702.31;5052479;28;20880;-54
2023/06/27 06:35:48;;;;;;;0.50;0.20;;;;;;;20.06;65.63;100707.75;5051611;28;20918;-54
2023/06/27 06:38:14;;;;;;;0.50;0.20;;;;;;;20.09;64.81;100707.56;5052117;28;20498;-54
2023/06/27 06:40:42;;;;;;;0.50;0.20;;;;;;;20.02;64.76;100703.50;5052058;28;20551;-59
2023/06/27 06:43:09;;;;;;;0.50;0.20;;;;;;;20.24;65.36;100694.06;5051831;28;20877;-54
2023/06/27 06:45:35;;;;;;;0.50;0.20;;;;;;;20.08;65.53;100694.16;5051578;28;20491;-54
2023/06/27 06:48:02;;;;;;;0.50;0.20;;;;;;;20.34;64.17;100696.09;5051985;28;20495;-54
2023/06/27 06:50:30;;;;;;;0.50;0.27;;;;;;;20.67;63.06;100700.34;5052070;28;20462;-54
2023/06/27 06:52:57;;;;;;;0.50;0.20;;;;;;;20.83;62.25;100702.94;5051651;28;20935;-54
2023/06/27 06:55:24;;;;;;;0.50;0.20;;;;;;;21.26;61.31;100701.94;5051933;28;20486;-54
2023/06/27 06:57:50;;;;;;;0.50;0.20;;;;;;;20.86;60.83;100700.94;5050794;28;20490;-54
2023/06/27 07:00:17;;;;;;;0.50;0.20;;;;;;;21.22;61.03;100694.94;5051738;28;20554;-54
2023/06/27 07:02:44;;;;;;;0.50;0.20;;;;;;;21.57;59.37;100692.63;5051523;28;20516;-55
2023/06/27 07:05:12;;;;;;;0.50;0.20;;;;;;;21.41;59.12;100696.47;5051683;28;20553;-54
2023/06/27 07:07:38;;;;;;;0.50;0.20;;;;;;;22.27;57.36;100689.59;5051494;28;20877;-55
2023/06/27 07:10:05;;;;;;;0.50;0.20;;;;;;;22.12;56.56;100686.13;5051641;28;20511;-54
2023/06/27 07:12:32;;;;;;;0.50;0.20;;;;;;;22.29;55.68;100693.06;5051379;28;20470;-55
2023/06/27 07:14:58;;;;;;;0.50;0.20;;;;;;;22.15;55.31;100687.75;5051770;28;20466;-54
2023/06/27 07:17:26;;;;;;;0.50;0.20;;;;;;;22.13;56.39;100681.56;5051586;28;20508;-54
2023/06/27 07:19:53;;;;;;;0.50;0.20;;;;;;;22.32;55.17;100678.41;5051700;28;20536;-54
2023/06/27 07:22:21;;;;;;;0.50;0.20;;;;;;;22.17;55.66;100678.53;5051477;28;20459;-54
2023/06/27 07:24:47;;;;;;;0.50;0.20;;;;;;;22.69;54.36;100673.94;5051153;28;20842;-54
2023/06/27 07:27:14;;;;;;;0.50;0.20;;;;;;;23.34;52.48;100676.34;5051159;28;20479;-55
2023/06/27 07:29:40;;;;;;;0.50;0.20;;;;;;;23.96;51.24;100678.81;5051434;28;20490;-54
2023/06/27 07:32:09;;;;;;;0.50;0.20;;;;;;;23.56;51.98;100670.13;5051813;28;20466;-54
2023/06/27 07:34:36;;;;;;;2.30;2.00;;;;;;;23.49;50.55;100667.03;5051214;28;20545;-55
2023/06/27 07:37:03;;;;;;;0.50;0.20;;;;;;;23.39;50.36;100667.84;5051062;28;20528;-54
2023/06/27 07:39:29;;;;;;;0.50;0.20;;;;;;;23.28;51.13;100663.22;5051445;28;20473;-55
2023/06/27 07:41:56;;;;;;;0.50;0.20;;;;;;;23.01;51.22;100668.88;5051271;28;20462;-54
2023/06/27 07:44:23;;;;;;;0.50;0.30;;;;;;;23.35;50.28;100662.66;5050047;28;20998;-55
2023/06/27 07:46:49;;;;;;;0.50;0.20;;;;;;;23.09;50.91;100661.03;5051167;28;20914;-55
2023/06/27 07:49:16;;;;;;;0.50;0.30;;;;;;;23.59;50.35;100649.09;5051865;28;20474;-55
2023/06/27 07:51:42;;;;;;;0.50;0.30;;;;;;;23.44;50.92;100662.97;5051127;28;20463;-55
2023/06/27 07:54:09;;;;;;;0.50;0.20;;;;;;;23.09;50.80;100658.34;5051432;28;20471;-54
2023/06/27 07:56:36;;;;;;;0.50;0.20;;;;;;;24.15;49.83;100657.38;5050866;28;20501;-55
2023/06/27 07:59:04;;;;;;;0.50;0.20;;;;;;;23.82;49.76;100654.59;5051511;28;20467;-55
2023/06/27 08:01:31;;;;;;;0.50;0.20;;;;;;;23.80;49.36;100662.00;5047977;28;20546;-55
2023/06/27 08:03:58;;;;;;;0.50;0.20;;;;;;;23.89;47.95;100662.16;5044685;28;20553;-55
2023/06/27 08:06:24;;;;;;;0.50;0.20;;;;;;;24.54;46.26;100657.94;5050967;28;20485;-55
2023/06/27 08:08:51;;;;;;;0.50;0.20;;;;;;;24.56;46.24;100661.38;5051299;28;20569;-54
2023/06/27 08:11:17;;;;;;;0.50;0.27;;;;;;;24.56;45.83;100655.09;5054845;28;20466;-54
2023/06/27 08:13:44;;;;;;;0.60;0.40;;;;;;;24.12;44.67;100649.47;5054452;28;20466;-54
2023/06/27 08:16:10;;;;;;;0.50;0.20;;;;;;;23.69;45.85;100643.81;5054404;28;20493;-55
2023/06/27 08:18:37;;;;;;;0.50;0.23;;;;;;;24.16;45.84;100648.25;5054322;28;20905;-55
2023/06/27 08:21:04;;;;;;;0.50;0.30;;;;;;;23.92;47.67;100642.88;5054688;28;20441;-55
2023/06/27 08:23:31;;;;;;;0.50;0.30;;;;;;;23.71;47.07;100646.41;5054626;28;20841;-55
2023/06/27 08:25:57;;;;;;;0.50;0.30;;;;;;;24.10;46.13;100645.13;5054392;28;20487;-54
2023/06/27 08:28:23;;;;;;;0.50;0.20;;;;;;;25.19;44.48;100639.88;5054648;28;20440;-55
2023/06/27 08:30:50;;;;;;;0.50;0.20;;;;;;;25.55;42.67;100638.63;5054311;28;20948;-55
2023/06/27 08:33:17;;;;;;;0.50;0.30;;;;;;;24.97;43.92;100636.22;5053920;28;20991;-54
2023/06/27 08:35:44;;;;;;;0.50;0.20;;;;;;;25.71;42.92;100633.63;5054162;28;20540;-55
2023/06/27 08:38:10;;;;;;;0.50;0.30;;;;;;;25.10;43.48;100627.94;5054153;28;20961;-54
2023/06/27 08:40:37;;;;;;;0.50;0.30;;;;;;;25.19;42.57;100629.88;5054248;28;20467;-55
2023/06/27 08:43:05;;;;;;;0.50;0.20;;;;;;;25.27;41.52;100624.66;5054472;28;20499;-55
2023/06/27 08:45:35;;;;;;;0.50;0.20;;;;;;;25.42;41.29;100629.78;5054389;28;20489;-55
2023/06/27 08:48:05;;;;;;;0.50;0.20;;;;;;;25.92;41.57;100620.00;5050478;28;21000;-55
2023/06/27 08:50:37;;;;;;;0.50;0.20;;;;;;;25.09;42.45;100626.22;5053966;28;20878;-56
2023/06/27 08:53:07;;;;;;;0.50;0.20;;;;;;;24.72;41.92;100615.63;5054014;28;20946;-54
2023/06/27 08:55:52;;;;;;;0.50;0.20;;;;;;;24.49;43.24;100614.78;5053709;28;20910;-55
2023/06/27 08:58:25;;;;;;;0.50;0.20;;;;;;;24.65;44.16;100610.81;5048806;28;20501;-55
2023/06/27 09:00:54;;;;;;;0.50;0.20;;;;;;;24.43;43.92;100604.44;5053598;28;20835;-54
2023/06/27 09:03:21;;;;;;;0.50;0.20;;;;;;;24.34;43.01;100601.59;5053908;28;20967;-54
2023/06/27 09:05:48;;;;;;;0.50;0.20;;;;;;;24.56;43.58;100598.84;5053755;28;20544;-55
2023/06/27 09:08:14;;;;;;;0.50;0.20;;;;;;;24.81;43.62;100601.28;5053805;28;20470;-54
2023/06/27 09:10:43;;;;;;;0.50;0.20;;;;;;;24.91;42.02;100595.06;5053566;28;20477;-55
2023/06/27 09:13:11;;;;;;;0.50;0.30;;;;;;;24.73;43.87;100592.88;5053713;28;20466;-54
2023/06/27 09:15:37;;;;;;;0.50;0.20;;;;;;;25.28;42.76;100591.00;5053107;28;20487;-55
2023/06/27 09:18:04;;;;;;;0.50;0.20;;;;;;;25.14;42.62;100593.16;5053484;28;20581;-55
2023/06/27 09:20:31;;;;;;;0.50;0.20;;;;;;;25.34;41.51;100593.19;5053191;28;20524;-54
2023/06/27 09:23:05;;;;;;;0.50;0.20;;;;;;;24.65;42.26;100591.78;5045553;28;20441;-54
2023/06/27 09:25:31;;;;;;;0.50;0.20;;;;;;;24.46;41.79;100589.72;5053039;28;20474;-54
2023/06/27 09:28:12;;;;;;;0.50;0.20;;;;;;;25.27;41.25;100583.84;5053282;28;20458;-54
2023/06/27 09:30:39;;;;;;;0.50;0.20;;;;;;;24.75;40.54;100590.03;5053159;28;20879;-55
2023/06/27 09:33:06;;;;;;;0.50;0.20;;;;;;;25.49;41.21;100588.28;5053098;28;20493;-55
2023/06/27 09:35:32;;;;;;;0.50;0.20;;;;;;;25.28;40.97;100601.88;5066537;23;20474;-50
2023/06/27 09:38:20;;;;;;;0.50;0.20;;;;;;;25.74;39.99;100583.47;5053076;28;20516;-50
2023/06/27 09:41:00;;;;;;;0.50;0.20;;;;;;;25.39;40.64;100585.50;5053512;28;20463;-50
2023/06/27 09:43:31;;;;;;;0.50;0.20;;;;;;;25.49;39.56;100582.84;5053230;28;20876;-50
2023/06/27 09:45:59;;;;;;;0.50;0.20;;;;;;;25.57;38.79;100576.75;5046457;28;20975;-49
2023/06/27 09:48:28;;;;;;;0.50;0.30;;;;;;;26.05;37.47;100587.97;5049006;28;20466;-50
2023/06/27 09:51:03;;;;;;;0.50;0.20;;;;;;;25.54;36.84;100583.31;5052608;28;20557;-50
2023/06/27 09:53:31;;;;;;;0.50;0.20;;;;;;;26.34;36.31;100590.81;5053313;28;20544;-50
2023/06/27 09:56:28;;;;;;;0.50;0.30;;;;;;;26.27;35.76;100581.44;5051033;28;20483;-50
2023/06/27 09:58:55;;;;;;;0.50;0.30;;;;;;;26.53;35.82;100571.81;5052865;28;20497;-51
2023/06/27 10:01:27;;;;;;;0.50;0.30;;;;;;;26.25;35.13;100570.69;5048890;28;20474;-50
2023/06/27 10:03:53;;;;;;;0.50;0.30;;;;;;;26.79;34.32;100576.75;5051234;28;20470;-50
2023/06/27 10:06:20;;;;;;;0.50;0.30;;;;;;;26.36;34.27;100566.16;5052819;28;20493;-50
2023/06/27 10:08:47;;;;;;;0.50;0.20;;;;;;;26.29;33.48;100571.25;5052633;28;20481;-51
2023/06/27 10:11:13;;;;;;;0.50;0.20;;;;;;;26.55;32.02;100579.84;5046695;28;20494;-51
2023/06/27 10:13:40;;;;;;;0.50;0.30;;;;;;;26.63;32.89;100580.03;5052432;28;20462;-51
2023/06/27 10:16:07;;;;;;;0.50;0.30;;;;;;;26.10;33.52;100582.09;5052561;28;20482;-51
2023/06/27 10:18:34;;;;;;;0.50;0.30;;;;;;;26.71;33.06;100585.63;5052388;28;20499;-51
2023/06/27 10:21:01;;;;;;;0.50;0.20;;;;;;;25.94;32.14;100590.78;5052580;28;20476;-50
2023/06/27 10:23:30;;;;;;;0.50;0.20;;;;;;;25.93;32.71;100589.03;5052545;28;20529;-51
2023/06/27 10:25:57;;;;;;;0.50;0.23;;;;;;;26.26;32.20;100590.63;5052133;28;20483;-50
2023/06/27 10:28:24;;;;;;;0.50;0.20;;;;;;;25.87;32.35;100592.28;5052171;28;20437;-51
2023/06/27 10:30:50;;;;;;;0.50;0.30;;;;;;;26.37;31.99;100582.38;5052155;28;20476;-51
2023/06/27 10:33:31;;;;;;;0.50;0.30;;;;;;;26.90;32.12;100584.81;5051709;28;20467;-51
2023/06/27 10:36:05;;;;;;;0.50;0.30;;;;;;;26.61;31.12;100589.34;5043959;28;20501;-50
2023/06/27 10:38:36;;;;;;;0.50;0.27;;;;;;;25.81;32.34;100571.91;5051900;28;20498;-51
2023/06/27 10:41:04;;;;;;;0.50;0.20;;;;;;;25.42;32.77;100578.06;5051811;28;20513;-50
2023/06/27 10:43:36;;;;;;;0.50;0.20;;;;;;;26.16;33.35;100566.03;5052049;28;20467;-51
2023/06/27 10:46:11;;;;;;;0.50;0.20;;;;;;;26.30;32.98;100570.25;5051692;28;20891;-51
2023/06/27 10:48:59;;;;;;;0.50;0.20;;;;;;;25.83;33.49;100572.63;5049078;28;20458;-51
2023/06/27 10:51:34;;;;;;;0.50;0.20;;;;;;;25.72;32.69;100577.28;5051695;28;20494;-51
2023/06/27 10:54:07;;;;;;;0.50;0.20;;;;;;;26.38;33.60;100569.63;5051857;28;20854;-51
2023/06/27 10:56:37;;;;;;;0.50;0.30;;;;;;;26.64;32.46;100569.97;5051634;28;20903;-51
2023/06/27 10:59:08;;;;;;;0.50;0.20;;;;;;;26.83;31.99;100570.88;5051897;28;20487;-51
2023/06/27 11:01:40;;;;;;;0.50;0.20;;;;;;;26.46;32.21;100570.66;5051678;28;20550;-52
2023/06/27 11:04:22;;;;;;;0.50;0.20;;;;;;;26.92;32.18;100552.78;5051696;28;20959;-51
2023/06/27 11:06:49;;;;;;;0.50;0.30;;;;;;;26.51;31.80;100562.06;5051656;28;20497;-50
2023/06/27 11:09:18;;;;;;;0.50;0.20;;;;;;;26.94;32.07;100555.38;5051813;28;20462;-51
2023/06/27 11:12:06;;;;;;;0.50;0.20;;;;;;;26.45;32.55;100549.84;5052072;28;20505;-50
2023/06/27 11:14:38;;;;;;;0.50;0.20;;;;;;;26.95;31.89;100548.91;5048311;28;21027;-51
2023/06/27 11:17:05;;;;;;;0.50;0.20;;;;;;;26.55;32.08;100542.53;5051600;28;20482;-51
2023/06/27 11:19:33;;;;;;;0.50;0.20;;;;;;;27.02;31.82;100536.47;5051645;28;20494;-51
2023/06/27 11:22:01;;;;;;;0.50;0.20;;;;;;;26.83;31.99;100556.34;5051824;28;20494;-50
2023/06/27 11:24:31;;;;;;;0.50;0.30;;;;;;;26.56;31.93;100546.97;5051672;28;20513;-51
2023/06/27 11:26:59;;;;;;;0.50;0.20;;;;;;;26.73;31.75;100547.31;5048257;28;20490;-50
2023/06/27 11:29:26;;;;;;;0.50;0.20;;;;;;;26.98;31.89;100545.88;5051681;28;21028;-50